Terminal Aerodrome Forecast
Issued by NWS

Home | Current Version | Previous Version | Graphics & Text | Print | Product List | Glossary On
Versions: 1 2 3 4 5 6 7 8 9 10 11 12
544
FTUS43 KBIS 191732
TAFDIK
TAF
KDIK 191732Z 1918/2018 31015G23KT P6SM SCT070
     FM200200 34009KT P6SM FEW080
     FM200600 04006KT P6SM FEW200
     FM201500 15008KT P6SM SCT200=

USA.gov is the U.S. government's official web portal to all federal, state and local government web resources and services.